createdAt,value
2023-03-06T00:04:41.361Z,15.10
2023-03-06T00:09:43.065Z,10.90
2023-03-06T00:14:44.907Z,9.60
2023-03-06T00:19:46.790Z,13.30
2023-03-06T00:24:48.602Z,7.40
2023-03-06T00:29:57.814Z,5.00
2023-03-06T00:34:59.583Z,10.80
2023-03-06T00:40:01.566Z,12.20
2023-03-06T00:45:04.900Z,18.60
2023-03-06T00:50:08.094Z,4.80
2023-03-06T00:55:10.695Z,7.80
2023-03-06T01:00:14.320Z,8.70
2023-03-06T01:05:16.273Z,5.80
2023-03-06T01:10:18.283Z,8.10
2023-03-06T01:15:21.357Z,6.90
2023-03-06T01:20:23.349Z,9.40
2023-03-06T01:25:26.034Z,9.00
2023-03-06T01:30:27.908Z,9.30
2023-03-06T01:35:29.738Z,7.90
2023-03-06T01:40:34.019Z,2.80
2023-03-06T01:45:35.724Z,8.80
2023-03-06T01:50:37.880Z,8.60
2023-03-06T01:55:40.067Z,8.20
2023-03-06T02:00:41.852Z,10.20
2023-03-06T02:05:44.297Z,10.20
2023-03-06T02:10:58.912Z,9.80
2023-03-06T02:16:01.923Z,5.50
2023-03-06T02:21:09.234Z,9.60
2023-03-06T02:26:12.737Z,5.50
2023-03-06T02:31:28.993Z,18.40
2023-03-06T02:36:34.744Z,8.20
2023-03-06T02:41:36.491Z,8.00
2023-03-06T02:46:38.176Z,5.80
2023-03-06T02:51:39.936Z,10.40
2023-03-06T02:56:41.717Z,4.20
2023-03-06T03:01:43.545Z,3.80
2023-03-06T03:06:45.290Z,3.70
2023-03-06T03:11:46.931Z,4.50
2023-03-06T03:16:48.606Z,10.70
2023-03-06T03:21:50.276Z,4.40
2023-03-06T03:26:52.361Z,3.90
2023-03-06T03:31:54.135Z,3.30
2023-03-06T03:36:55.913Z,11.00
2023-03-06T03:41:57.588Z,8.90
2023-03-06T03:46:59.279Z,12.00
2023-03-06T03:52:00.936Z,7.60
2023-03-06T03:57:03.214Z,7.80
2023-03-06T04:02:05.166Z,1.90
2023-03-06T04:07:06.869Z,5.80
2023-03-06T04:12:09.057Z,8.40
2023-03-06T04:17:10.831Z,9.90
2023-03-06T04:22:12.704Z,10.20
2023-03-06T04:27:14.399Z,9.50
2023-03-06T04:32:16.178Z,7.60
2023-03-06T04:37:24.300Z,5.40
2023-03-06T04:42:26.057Z,12.60
2023-03-06T04:47:27.827Z,7.30
2023-03-06T04:52:29.733Z,6.90
2023-03-06T04:57:31.449Z,7.60
2023-03-06T05:02:33.549Z,6.50
2023-03-06T05:07:35.552Z,6.10
2023-03-06T05:12:38.952Z,10.60
2023-03-06T05:17:41.248Z,10.30
2023-03-06T05:22:44.040Z,10.20
2023-03-06T05:27:46.343Z,4.00
2023-03-06T05:32:49.203Z,11.00
2023-03-06T05:37:51.319Z,5.60
2023-03-06T05:42:53.318Z,9.10
2023-03-06T05:47:55.275Z,13.40
2023-03-06T05:52:57.057Z,9.20
2023-03-06T05:57:58.880Z,6.00
2023-03-06T06:03:01.940Z,3.10
2023-03-06T06:08:03.812Z,9.40
2023-03-06T06:13:06.103Z,5.60
2023-03-06T06:18:07.803Z,2.70
2023-03-06T06:23:12.647Z,5.00
2023-03-06T06:28:14.493Z,13.80
2023-03-06T06:33:16.275Z,4.10
2023-03-06T06:38:19.472Z,9.60
2023-03-06T06:43:21.219Z,7.70
2023-03-06T06:48:23.080Z,10.40
2023-03-06T06:53:27.404Z,10.50
2023-03-06T06:58:29.754Z,11.50
2023-03-06T07:03:31.654Z,7.80
2023-03-06T07:08:34.641Z,5.10
2023-03-06T07:13:36.408Z,3.40
2023-03-06T07:18:38.283Z,8.70
2023-03-06T07:23:40.772Z,3.90
2023-03-06T07:28:52.035Z,6.50
2023-03-06T07:33:55.281Z,8.10
2023-03-06T07:38:56.966Z,4.00
2023-03-06T07:43:59.550Z,5.70
2023-03-06T07:49:01.350Z,11.40
2023-03-06T07:54:03.291Z,9.20
2023-03-06T07:59:04.985Z,5.70
2023-03-06T08:04:07.096Z,7.50
2023-03-06T08:09:08.940Z,8.40
2023-03-06T08:14:10.846Z,7.00
2023-03-06T08:19:12.602Z,7.20
2023-03-06T08:24:16.332Z,8.20
2023-03-06T08:29:18.094Z,6.10
2023-03-06T08:34:26.509Z,4.40
2023-03-06T08:39:28.392Z,8.50
2023-03-06T08:44:30.148Z,3.80
2023-03-06T08:49:32.557Z,7.90
2023-03-06T08:54:36.195Z,3.30
2023-03-06T08:59:38.159Z,4.20
2023-03-06T09:04:40.057Z,8.30
2023-03-06T09:09:42.217Z,5.00
2023-03-06T09:14:44.017Z,5.00
2023-03-06T09:19:45.769Z,4.60
2023-03-06T09:24:47.548Z,6.80
2023-03-06T09:29:49.526Z,4.60
2023-03-06T09:34:51.303Z,2.10
2023-03-06T09:39:53.184Z,2.60
2023-03-06T09:44:58.731Z,2.20
2023-03-06T09:50:34.157Z,2.10
2023-03-06T09:55:39.739Z,2.10
2023-03-06T10:01:03.152Z,3.40
2023-03-06T10:06:18.024Z,2.10
2023-03-06T10:11:32.531Z,5.70
2023-03-06T10:16:34.382Z,2.10
2023-03-06T10:22:00.523Z,1.60
2023-03-06T10:27:42.898Z,3.90
2023-03-06T10:32:59.213Z,3.60
2023-03-06T10:38:22.488Z,4.20
2023-03-06T10:43:24.431Z,4.00
2023-03-06T10:48:32.240Z,5.10
2023-03-06T10:53:34.329Z,8.80
2023-03-06T10:58:35.999Z,8.00
2023-03-06T11:03:38.019Z,3.70
2023-03-06T11:08:43.912Z,7.10
2023-03-06T11:13:58.204Z,6.10
2023-03-06T11:19:04.998Z,10.30
2023-03-06T11:24:18.270Z,5.90
2023-03-06T11:29:48.965Z,8.10
2023-03-06T11:35:28.514Z,5.40
2023-03-06T11:40:42.787Z,2.40
2023-03-06T11:45:58.845Z,6.30
2023-03-06T11:51:16.917Z,6.10
2023-03-06T11:56:18.576Z,7.40
2023-03-06T12:01:54.695Z,2.90
2023-03-06T12:07:24.408Z,2.60
2023-03-06T12:12:41.537Z,3.80
2023-03-06T12:18:21.734Z,2.90
2023-03-06T12:23:45.487Z,4.30
2023-03-06T12:29:10.506Z,4.40
2023-03-06T12:34:36.764Z,5.00
2023-03-06T12:40:09.580Z,4.70
2023-03-06T12:45:23.931Z,2.30
2023-03-06T12:50:27.254Z,5.80
2023-03-06T12:55:45.716Z,8.40
2023-03-06T13:01:11.187Z,9.60
2023-03-06T13:06:49.870Z,4.10
2023-03-06T13:12:04.767Z,1.80
2023-03-06T13:17:37.575Z,4.50
2023-03-06T13:22:44.873Z,1.80
2023-03-06T13:27:53.212Z,3.20
2023-03-06T13:32:55.999Z,2.50
2023-03-06T13:37:59.929Z,3.00
2023-03-06T13:43:07.952Z,5.00
2023-03-06T13:48:46.004Z,3.10
2023-03-06T13:54:31.399Z,2.10
2023-03-06T14:00:08.209Z,4.80
2023-03-06T14:05:16.527Z,7.90
2023-03-06T14:10:25.745Z,7.40
2023-03-06T14:15:45.995Z,4.00
2023-03-06T14:20:56.741Z,5.90
2023-03-06T14:26:18.212Z,9.70
2023-03-06T14:31:27.690Z,4.80
2023-03-06T14:36:29.808Z,6.80
2023-03-06T14:41:36.145Z,3.80
2023-03-06T14:46:38.004Z,5.20
2023-03-06T14:51:47.990Z,5.00
2023-03-06T14:57:13.065Z,6.80
2023-03-06T15:02:22.270Z,6.10
2023-03-06T15:07:31.969Z,12.20
2023-03-06T15:12:36.656Z,6.00
2023-03-06T15:17:48.745Z,7.30
2023-03-06T15:22:50.606Z,15.40
2023-03-06T15:27:59.912Z,7.80
2023-03-06T15:33:19.376Z,15.10
2023-03-06T15:38:42.419Z,15.50
2023-03-06T15:43:44.299Z,16.40
2023-03-06T15:49:03.430Z,13.00
2023-03-06T15:54:12.368Z,10.50
2023-03-06T15:59:32.562Z,18.60
2023-03-06T16:04:34.515Z,17.90
2023-03-06T16:09:36.697Z,22.60
2023-03-06T16:14:39.301Z,22.00
2023-03-06T16:19:41.595Z,31.10
2023-03-06T16:24:43.489Z,26.60
2023-03-06T16:29:45.764Z,30.20
2023-03-06T16:34:47.618Z,28.50
2023-03-06T16:39:49.489Z,27.80
2023-03-06T16:44:51.340Z,26.90
2023-03-06T16:49:57.379Z,17.80
2023-03-06T16:54:59.223Z,19.30
2023-03-06T17:00:01.406Z,24.40
2023-03-06T17:05:05.310Z,20.60
2023-03-06T17:10:12.568Z,21.30
2023-03-06T17:15:14.310Z,20.70
2023-03-06T17:20:16.098Z,26.70
2023-03-06T17:25:17.961Z,29.60
2023-03-06T17:30:20.042Z,24.40
2023-03-06T17:35:21.862Z,31.30
2023-03-06T17:40:25.125Z,29.80
2023-03-06T17:45:29.075Z,28.00
2023-03-06T17:50:31.036Z,34.70
2023-03-06T17:55:32.908Z,39.70
2023-03-06T18:00:35.612Z,38.90
2023-03-06T18:05:38.406Z,17.90
2023-03-06T18:10:42.742Z,36.60
2023-03-06T18:15:44.549Z,29.10
2023-03-06T18:20:47.273Z,22.90
2023-03-06T18:25:50.118Z,35.00
2023-03-06T18:30:51.810Z,28.70
2023-03-06T18:35:53.688Z,28.10
2023-03-06T18:40:55.648Z,41.50
2023-03-06T18:45:57.808Z,46.80
2023-03-06T18:51:06.308Z,38.30
2023-03-06T18:56:15.721Z,31.40
2023-03-06T19:01:18.241Z,26.40
2023-03-06T19:06:20.301Z,30.40
2023-03-06T19:11:22.073Z,33.00
2023-03-06T19:16:30.389Z,28.80
2023-03-06T19:21:32.391Z,32.10
2023-03-06T19:26:34.058Z,31.10
2023-03-06T19:31:35.970Z,28.50
2023-03-06T19:36:40.165Z,30.50
2023-03-06T19:41:41.889Z,29.10
2023-03-06T19:46:43.699Z,36.10
2023-03-06T19:51:45.727Z,34.30
2023-03-06T19:56:47.385Z,31.30
2023-03-06T20:01:49.188Z,43.10
2023-03-06T20:06:51.222Z,49.20
2023-03-06T20:11:53.231Z,67.90
2023-03-06T20:16:54.977Z,49.40
2023-03-06T20:21:56.672Z,46.10
2023-03-06T20:26:59.058Z,32.80
2023-03-06T20:32:01.117Z,41.00
2023-03-06T20:37:03.099Z,49.00
2023-03-06T20:42:05.589Z,50.30
2023-03-06T20:47:08.592Z,44.90
2023-03-06T20:52:10.487Z,44.50
2023-03-06T20:57:12.570Z,40.60
2023-03-06T21:02:14.867Z,69.20
2023-03-06T21:07:17.072Z,41.80
2023-03-06T21:12:18.903Z,50.90
2023-03-06T21:17:20.790Z,48.50
2023-03-06T21:22:22.658Z,52.60
2023-03-06T21:27:24.437Z,62.50
2023-03-06T21:32:26.293Z,51.10
2023-03-06T21:37:28.320Z,50.00
2023-03-06T21:42:29.960Z,61.60
2023-03-06T21:47:37.271Z,54.50
2023-03-06T21:52:39.661Z,45.90
2023-03-06T21:57:42.153Z,51.50
2023-03-06T22:02:44.147Z,44.50
2023-03-06T22:07:46.014Z,45.70
2023-03-06T22:12:47.705Z,45.50
2023-03-06T22:17:49.378Z,37.10
2023-03-06T22:22:51.232Z,44.10
2023-03-06T22:27:52.897Z,32.10
2023-03-06T22:32:54.713Z,33.00
2023-03-06T22:37:58.187Z,31.40
2023-03-06T22:42:59.869Z,44.20
2023-03-06T22:48:10.637Z,57.50
2023-03-06T22:53:13.037Z,47.20
2023-03-06T22:58:14.813Z,57.00
2023-03-06T23:03:16.586Z,38.30
2023-03-06T23:08:18.365Z,39.30
2023-03-06T23:13:20.342Z,28.50
2023-03-06T23:18:22.224Z,41.00
2023-03-06T23:23:25.671Z,41.80
2023-03-06T23:28:28.328Z,51.70
2023-03-06T23:33:30.118Z,56.30
2023-03-06T23:38:32.600Z,55.00
2023-03-06T23:43:34.887Z,32.00
2023-03-06T23:48:40.000Z,42.90
2023-03-06T23:53:43.864Z,46.70
2023-03-06T23:58:45.752Z,62.80
